Time;durP1;ratioP1;P1;durP2;ratioP2;P2;SDS_P1;SDS_P2;PMS_P1;PMS_P2;Temp;Humidity;BMP_temperature;BMP_pressure;BME280_temperature;BME280_humidity;BME280_pressure;Samples;Min_cycle;Max_cycle;Signal;HPM_P1;HPM_P2
2023/01/24 00:02:09;;;;;;;9.07;6.22;;;;;;;;;;6342278;22;20219;-62
2023/01/24 00:04:35;;;;;;;11.48;6.82;;;;;;;;;;6342485;22;20149;-62
2023/01/24 00:07:01;;;;;;;8.60;5.85;;;;;;;;;;6342438;22;20146;-62
2023/01/24 00:09:27;;;;;;;8.85;6.28;;;;;;;;;;6342181;22;20154;-63
2023/01/24 00:11:53;;;;;;;10.57;6.95;;;;;;;;;;6342372;22;20139;-62
2023/01/24 00:14:19;;;;;;;9.00;6.13;;;;;;;;;;6342215;22;20146;-63
2023/01/24 00:16:45;;;;;;;7.90;6.13;;;;;;;;;;6342190;22;20142;-61
2023/01/24 00:19:11;;;;;;;9.05;6.22;;;;;;;;;;6342136;22;20149;-62
2023/01/24 00:21:37;;;;;;;8.60;6.50;;;;;;;;;;6342451;22;20142;-62
2023/01/24 00:24:03;;;;;;;8.98;6.47;;;;;;;;;;6342497;22;20137;-62
2023/01/24 00:26:29;;;;;;;10.95;6.97;;;;;;;;;;6342665;22;20146;-62
2023/01/24 00:28:56;;;;;;;7.45;6.45;;;;;;;;;;6342237;22;20142;-62
2023/01/24 00:31:22;;;;;;;8.68;6.35;;;;;;;;;;6343053;22;20165;-63
2023/01/24 00:33:48;;;;;;;8.25;5.95;;;;;;;;;;6341986;22;20565;-62
2023/01/24 00:36:14;;;;;;;7.90;5.60;;;;;;;;;;6342297;22;20192;-63
2023/01/24 00:38:40;;;;;;;7.60;5.68;;;;;;;;;;6342407;22;20493;-63
2023/01/24 00:41:06;;;;;;;8.25;5.88;;;;;;;;;;6343584;22;20139;-61
2023/01/24 00:43:32;;;;;;;7.85;5.75;;;;;;;;;;6342232;22;20448;-62
2023/01/24 00:45:58;;;;;;;10.13;5.95;;;;;;;;;;6342037;22;20168;-61
2023/01/24 00:48:24;;;;;;;7.35;5.88;;;;;;;;;;6342744;22;20453;-61
2023/01/24 00:50:50;;;;;;;7.90;5.35;;;;;;;;;;6343140;22;20142;-62
2023/01/24 00:53:16;;;;;;;9.32;5.70;;;;;;;;;;6344835;22;20557;-62
2023/01/24 00:55:43;;;;;;;9.10;6.18;;;;;;;;;;6343787;22;20173;-62
2023/01/24 00:58:09;;;;;;;9.43;6.43;;;;;;;;;;6343501;22;20150;-62
2023/01/24 01:00:36;;;;;;;8.25;6.43;;;;;;;;;;6342712;22;20207;-63
2023/01/24 01:03:03;;;;;;;8.45;5.95;;;;;;;;;;6342563;22;20166;-62
2023/01/24 01:05:29;;;;;;;9.32;6.50;;;;;;;;;;6341875;22;20154;-61
2023/01/24 01:07:55;;;;;;;9.20;6.97;;;;;;;;;;6341868;22;20142;-62
2023/01/24 01:10:21;;;;;;;8.90;6.70;;;;;;;;;;6341952;22;20178;-63
2023/01/24 01:12:47;;;;;;;7.30;5.80;;;;;;;;;;6342320;22;20142;-62
2023/01/24 01:15:12;;;;;;;10.30;6.57;;;;;;;;;;6342204;22;20585;-63
2023/01/24 01:17:38;;;;;;;9.20;5.97;;;;;;;;;;6341856;22;20590;-63
2023/01/24 01:20:05;;;;;;;8.80;6.60;;;;;;;;;;6341628;22;20572;-62
2023/01/24 01:22:31;;;;;;;8.63;6.32;;;;;;;;;;6341617;22;20174;-63
2023/01/24 01:24:57;;;;;;;7.07;5.85;;;;;;;;;;6341887;22;20229;-63
2023/01/24 01:27:22;;;;;;;8.80;6.03;;;;;;;;;;6341642;22;20134;-62
2023/01/24 01:29:48;;;;;;;8.40;5.68;;;;;;;;;;6341931;22;20217;-62
2023/01/24 01:32:14;;;;;;;7.53;5.97;;;;;;;;;;6341990;22;20533;-62
2023/01/24 01:34:40;;;;;;;7.70;5.70;;;;;;;;;;6341829;22;20200;-62
2023/01/24 01:37:06;;;;;;;7.55;5.80;;;;;;;;;;6341560;22;20142;-63
2023/01/24 01:39:32;;;;;;;9.35;5.70;;;;;;;;;;6341424;22;20187;-62
2023/01/24 01:41:58;;;;;;;8.20;6.07;;;;;;;;;;6341395;22;20174;-62
2023/01/24 01:44:37;;;;;;;8.98;6.68;;;;;;;;;;6341795;22;20165;-62
2023/01/24 01:47:04;;;;;;;8.50;6.68;;;;;;;;;;6342843;22;20175;-62
2023/01/24 01:49:30;;;;;;;11.07;7.45;;;;;;;;;;6345227;22;20152;-62
2023/01/24 01:51:58;;;;;;;11.00;7.57;;;;;;;;;;6346546;22;20223;-63
2023/01/24 01:54:31;;;;;;;10.75;7.45;;;;;;;;;;6343136;22;20162;-62
2023/01/24 01:57:10;;;;;;;11.52;7.55;;;;;;;;;;6343555;22;20225;-62
2023/01/24 01:59:39;;;;;;;10.02;7.32;;;;;;;;;;6343302;22;20134;-62
2023/01/24 02:02:06;;;;;;;11.63;7.80;;;;;;;;;;6341972;22;20573;-62
2023/01/24 02:04:35;;;;;;;11.15;7.60;;;;;;;;;;6341524;22;20157;-62
2023/01/24 02:07:13;;;;;;;12.07;8.02;;;;;;;;;;6341944;22;20207;-62
2023/01/24 02:09:43;;;;;;;11.18;7.97;;;;;;;;;;6341595;22;20156;-62
2023/01/24 02:12:26;;;;;;;11.48;7.55;;;;;;;;;;6341639;22;20143;-62
2023/01/24 02:17:42;;;;;;;9.55;7.25;;;;;;;;;;6341799;22;20188;-62
2023/01/24 02:20:13;;;;;;;10.30;6.85;;;;;;;;;;6341174;22;20146;-62
2023/01/24 02:22:39;;;;;;;10.60;7.28;;;;;;;;;;6341022;22;20211;-62
2023/01/24 02:25:14;;;;;;;10.20;7.30;;;;;;;;;;6341181;22;20162;-62
2023/01/24 02:27:40;;;;;;;10.82;7.20;;;;;;;;;;6341218;22;20178;-63
2023/01/24 02:30:06;;;;;;;11.50;7.32;;;;;;;;;;6341119;22;20225;-62
2023/01/24 02:32:32;;;;;;;8.88;6.78;;;;;;;;;;6341586;22;20164;-63
2023/01/24 02:34:58;;;;;;;9.35;6.47;;;;;;;;;;6341453;22;20580;-63
2023/01/24 02:37:25;;;;;;;9.13;6.93;;;;;;;;;;6341458;22;20142;-63
2023/01/24 02:39:51;;;;;;;9.23;6.72;;;;;;;;;;6341475;22;20146;-62
2023/01/24 02:42:22;;;;;;;9.95;7.35;;;;;;;;;;6340939;22;20170;-62
2023/01/24 02:45:02;;;;;;;9.88;7.07;;;;;;;;;;6341213;22;20122;-63
2023/01/24 02:47:32;;;;;;;9.98;6.80;;;;;;;;;;6341442;22;20267;-62
2023/01/24 02:49:59;;;;;;;9.32;6.53;;;;;;;;;;6341306;22;20142;-63
2023/01/24 02:55:09;;;;;;;8.95;6.47;;;;;;;;;;6341438;22;20144;-63
2023/01/24 03:00:20;;;;;;;9.43;6.65;;;;;;;;;;6342844;22;20191;-62
2023/01/24 03:02:46;;;;;;;10.05;6.93;;;;;;;;;;6343012;22;20195;-63
2023/01/24 03:05:12;;;;;;;12.05;7.40;;;;;;;;;;6342866;22;20178;-63
2023/01/24 03:07:41;;;;;;;11.00;7.40;;;;;;;;;;6343340;22;20529;-62
2023/01/24 03:10:08;;;;;;;11.50;7.50;;;;;;;;;;6343288;22;20164;-62
2023/01/24 03:34:45;;;;;;;12.20;7.78;;;;;;;;;;6342897;22;20442;-62
2023/01/24 03:37:11;;;;;;;12.23;7.70;;;;;;;;;;6342916;22;20533;-62
2023/01/24 03:42:21;;;;;;;12.30;8.45;;;;;;;;;;6342650;22;20255;-60
2023/01/24 03:44:47;;;;;;;14.88;9.13;;;;;;;;;;6342716;22;20134;-62
2023/01/24 03:47:13;;;;;;;14.68;9.38;;;;;;;;;;6342744;22;20142;-62
2023/01/24 03:52:27;;;;;;;15.70;8.90;;;;;;;;;;6342492;22;20146;-62
2023/01/24 03:54:53;;;;;;;15.18;9.55;;;;;;;;;;6342958;22;20156;-61
2023/01/24 03:57:19;;;;;;;14.30;9.57;;;;;;;;;;6342486;22;20149;-62
2023/01/24 03:59:45;;;;;;;15.95;9.85;;;;;;;;;;6342762;22;20560;-62
2023/01/24 04:02:11;;;;;;;14.02;9.45;;;;;;;;;;6342247;22;20188;-62
2023/01/24 04:07:22;;;;;;;14.48;9.40;;;;;;;;;;6342520;22;20165;-62
2023/01/24 04:09:47;;;;;;;12.20;8.82;;;;;;;;;;6342594;22;20146;-62
2023/01/24 04:12:13;;;;;;;13.27;8.45;;;;;;;;;;6342050;22;20196;-63
2023/01/24 04:14:39;;;;;;;17.17;9.43;;;;;;;;;;6342734;22;20142;-62
2023/01/24 04:17:05;;;;;;;13.55;8.23;;;;;;;;;;6342198;22;20149;-61
2023/01/24 04:19:31;;;;;;;13.90;9.18;;;;;;;;;;6342648;22;20165;-63
2023/01/24 04:21:58;;;;;;;14.40;8.32;;;;;;;;;;6341890;22;20153;-62
2023/01/24 04:24:24;;;;;;;12.18;8.30;;;;;;;;;;6342292;22;20557;-63
2023/01/24 04:26:50;;;;;;;11.98;8.18;;;;;;;;;;6342507;22;20161;-62
2023/01/24 04:29:16;;;;;;;13.25;8.77;;;;;;;;;;6342474;22;20142;-62
2023/01/24 04:31:42;;;;;;;12.95;8.48;;;;;;;;;;6342377;22;20203;-62
2023/01/24 04:34:08;;;;;;;13.65;8.77;;;;;;;;;;6342493;22;20147;-62
2023/01/24 04:36:34;;;;;;;11.35;8.15;;;;;;;;;;6342738;22;20149;-62
2023/01/24 04:38:59;;;;;;;11.90;8.30;;;;;;;;;;6342868;22;20168;-61
2023/01/24 04:41:26;;;;;;;11.85;7.93;;;;;;;;;;6342335;22;20150;-62
2023/01/24 04:43:51;;;;;;;11.70;8.05;;;;;;;;;;6342286;22;20162;-62
2023/01/24 04:46:18;;;;;;;12.63;7.90;;;;;;;;;;6342173;22;20153;-62
2023/01/24 04:48:43;;;;;;;13.77;8.65;;;;;;;;;;6342413;22;20234;-62
2023/01/24 04:51:09;;;;;;;11.27;8.00;;;;;;;;;;6341991;22;20138;-62
2023/01/24 04:53:38;;;;;;;13.30;8.43;;;;;;;;;;6342212;22;20479;-62
2023/01/24 04:56:04;;;;;;;13.13;8.02;;;;;;;;;;6342351;22;20577;-62
2023/01/24 04:58:31;;;;;;;12.80;8.75;;;;;;;;;;6342193;22;20413;-62
2023/01/24 05:00:57;;;;;;;12.82;7.90;;;;;;;;;;6366972;22;20246;-62
2023/01/24 05:03:23;;;;;;;12.43;8.50;;;;;;;;;;6341821;22;20585;-63
2023/01/24 05:05:53;;;;;;;15.35;9.00;;;;;;;;;;6342169;22;20448;-62
2023/01/24 05:08:19;;;;;;;13.15;8.20;;;;;;;;;;6342166;22;20169;-63
2023/01/24 05:10:45;;;;;;;11.27;8.55;;;;;;;;;;6342101;22;20442;-62
2023/01/24 05:13:11;;;;;;;11.82;7.97;;;;;;;;;;6342021;22;20158;-62
2023/01/24 05:15:37;;;;;;;12.65;8.50;;;;;;;;;;6342021;22;20157;-63
2023/01/24 05:18:03;;;;;;;12.20;8.32;;;;;;;;;;6342070;22;20142;-63
2023/01/24 05:20:29;;;;;;;13.75;8.02;;;;;;;;;;6342552;22;20447;-62
2023/01/24 05:22:58;;;;;;;14.68;8.43;;;;;;;;;;6343132;22;20177;-62
2023/01/24 05:25:24;;;;;;;12.77;8.45;;;;;;;;;;6343632;22;20537;-62
2023/01/24 05:27:50;;;;;;;12.85;8.55;;;;;;;;;;6343623;22;20160;-62
2023/01/24 05:30:17;;;;;;;12.82;8.32;;;;;;;;;;6343541;22;20194;-62
2023/01/24 05:32:43;;;;;;;13.27;8.80;;;;;;;;;;6343347;22;20212;-62
2023/01/24 05:35:09;;;;;;;11.98;8.40;;;;;;;;;;6342742;22;20145;-62
2023/01/24 05:37:38;;;;;;;11.52;8.80;;;;;;;;;;6342584;22;20146;-62
2023/01/24 05:40:05;;;;;;;12.02;8.15;;;;;;;;;;6343051;22;20240;-62
2023/01/24 05:42:31;;;;;;;13.80;7.75;;;;;;;;;;6342854;22;20256;-62
2023/01/24 05:44:57;;;;;;;13.80;9.13;;;;;;;;;;6342982;22;20156;-62
2023/01/24 05:47:23;;;;;;;14.80;9.50;;;;;;;;;;6342764;22;20135;-62
2023/01/24 05:49:49;;;;;;;14.43;9.35;;;;;;;;;;6342835;22;20146;-62
2023/01/24 05:52:21;;;;;;;14.60;9.27;;;;;;;;;;6342959;22;20150;-62
2023/01/24 05:54:50;;;;;;;15.93;9.68;;;;;;;;;;6342773;22;20137;-62
2023/01/24 05:57:16;;;;;;;14.40;9.10;;;;;;;;;;6342883;22;20146;-62
2023/01/24 05:59:42;;;;;;;14.40;9.23;;;;;;;;;;6342620;22;20219;-62
2023/01/24 06:02:08;;;;;;;17.63;10.32;;;;;;;;;;6343560;22;20174;-62
2023/01/24 06:04:34;;;;;;;14.50;9.50;;;;;;;;;;6342743;22;20438;-61
2023/01/24 06:07:00;;;;;;;16.05;10.13;;;;;;;;;;6343005;22;20166;-62
2023/01/24 06:09:26;;;;;;;16.00;9.95;;;;;;;;;;6341320;22;20541;-62
2023/01/24 06:11:52;;;;;;;15.18;9.90;;;;;;;;;;6341849;22;20190;-62
2023/01/24 06:14:18;;;;;;;14.35;8.85;;;;;;;;;;6341550;22;20153;-62
2023/01/24 06:16:45;;;;;;;18.48;10.50;;;;;;;;;;6341523;22;20134;-62
2023/01/24 06:19:11;;;;;;;15.82;9.65;;;;;;;;;;6341469;22;20142;-63
2023/01/24 06:21:47;;;;;;;14.57;9.18;;;;;;;;;;6341092;22;20170;-60
2023/01/24 06:24:21;;;;;;;14.10;10.05;;;;;;;;;;6341110;22;20426;-63
2023/01/24 06:26:49;;;;;;;14.30;9.10;;;;;;;;;;6341050;22;20195;-62
2023/01/24 06:29:17;;;;;;;15.00;9.38;;;;;;;;;;6341678;22;20142;-62
2023/01/24 06:31:48;;;;;;;14.82;8.95;;;;;;;;;;6340996;22;20568;-62
2023/01/24 06:34:20;;;;;;;14.02;9.35;;;;;;;;;;6340853;22;20123;-62
2023/01/24 06:36:52;;;;;;;11.82;8.10;;;;;;;;;;6341181;22;20161;-62
2023/01/24 06:39:18;;;;;;;13.88;8.98;;;;;;;;;;6341436;22;20189;-61
2023/01/24 06:41:44;;;;;;;13.75;9.10;;;;;;;;;;6341375;22;20245;-60
2023/01/24 06:44:11;;;;;;;16.25;9.50;;;;;;;;;;6340834;22;20597;-63
2023/01/24 06:46:37;;;;;;;13.75;8.60;;;;;;;;;;6341471;22;20139;-63
2023/01/24 06:49:03;;;;;;;14.95;9.52;;;;;;;;;;6341273;22;20146;-62
2023/01/24 06:51:29;;;;;;;13.57;9.13;;;;;;;;;;6341087;22;20237;-64
2023/01/24 06:53:55;;;;;;;14.48;8.80;;;;;;;;;;6341410;22;20138;-63
2023/01/24 06:56:21;;;;;;;15.32;9.60;;;;;;;;;;6341243;22;20146;-63
2023/01/24 06:58:47;;;;;;;14.35;9.23;;;;;;;;;;6340992;22;20142;-62
2023/01/24 07:01:13;;;;;;;15.00;9.73;;;;;;;;;;6341292;22;20173;-60
2023/01/24 07:03:39;;;;;;;13.57;8.52;;;;;;;;;;6341010;22;20186;-61
2023/01/24 07:06:05;;;;;;;13.50;8.98;;;;;;;;;;6340914;22;20149;-62
2023/01/24 07:08:31;;;;;;;12.55;8.93;;;;;;;;;;6341099;22;20165;-60
2023/01/24 07:10:58;;;;;;;14.43;9.32;;;;;;;;;;6341517;22;20539;-62
2023/01/24 07:13:24;;;;;;;14.70;9.02;;;;;;;;;;6340860;22;20157;-62
2023/01/24 07:15:50;;;;;;;15.25;9.68;;;;;;;;;;6341298;22;20146;-60
2023/01/24 07:18:17;;;;;;;13.60;9.25;;;;;;;;;;6340828;22;20594;-62
2023/01/24 07:20:43;;;;;;;14.38;9.23;;;;;;;;;;6340913;22;20205;-62
2023/01/24 07:23:21;;;;;;;15.45;9.32;;;;;;;;;;6340957;22;20181;-61
2023/01/24 07:25:48;;;;;;;17.23;9.45;;;;;;;;;;6341233;22;20134;-62
2023/01/24 07:28:14;;;;;;;12.57;8.35;;;;;;;;;;6340748;22;20557;-61
2023/01/24 07:30:40;;;;;;;14.57;9.07;;;;;;;;;;6341047;22;20498;-63
2023/01/24 07:33:06;;;;;;;12.43;8.93;;;;;;;;;;6340956;22;20139;-63
2023/01/24 07:35:32;;;;;;;15.15;9.20;;;;;;;;;;6341160;22;20196;-61
2023/01/24 07:37:59;;;;;;;13.95;9.52;;;;;;;;;;6341119;22;20443;-62
2023/01/24 07:40:25;;;;;;;15.18;9.73;;;;;;;;;;6341097;22;20544;-62
2023/01/24 07:42:51;;;;;;;14.48;9.77;;;;;;;;;;6340927;22;20617;-61
2023/01/24 07:45:20;;;;;;;15.18;10.00;;;;;;;;;;6341062;22;20191;-62
2023/01/24 07:47:46;;;;;;;14.75;9.60;;;;;;;;;;6343303;22;20169;-61
2023/01/24 07:50:12;;;;;;;16.05;10.00;;;;;;;;;;6342623;22;20145;-62
2023/01/24 07:52:37;;;;;;;16.13;9.90;;;;;;;;;;6342576;22;20150;-61
2023/01/24 07:55:04;;;;;;;16.08;9.95;;;;;;;;;;6342686;22;20153;-62
2023/01/24 07:57:30;;;;;;;14.95;9.57;;;;;;;;;;6342859;22;20557;-61
2023/01/24 07:59:56;;;;;;;15.07;10.05;;;;;;;;;;6342367;22;20207;-60
2023/01/24 08:02:22;;;;;;;14.43;9.10;;;;;;;;;;6342067;22;20584;-61
2023/01/24 08:04:48;;;;;;;16.15;9.80;;;;;;;;;;6343249;22;20245;-62
2023/01/24 08:07:17;;;;;;;13.65;9.13;;;;;;;;;;6343269;22;20146;-63
2023/01/24 08:09:43;;;;;;;14.85;9.63;;;;;;;;;;6342366;22;20229;-63
2023/01/24 08:12:09;;;;;;;15.93;9.82;;;;;;;;;;6342078;22;20191;-62
2023/01/24 08:14:35;;;;;;;14.10;9.00;;;;;;;;;;6342332;22;20143;-61
2023/01/24 08:17:02;;;;;;;13.65;8.73;;;;;;;;;;6342551;22;20189;-62
2023/01/24 08:19:28;;;;;;;13.95;8.73;;;;;;;;;;6342180;22;20550;-61
2023/01/24 08:21:54;;;;;;;12.80;7.82;;;;;;;;;;6342347;22;20207;-62
2023/01/24 08:24:20;;;;;;;13.27;8.80;;;;;;;;;;6342079;22;20134;-64
2023/01/24 08:26:48;;;;;;;13.13;8.40;;;;;;;;;;6342051;22;20134;-62
2023/01/24 08:29:14;;;;;;;13.00;8.75;;;;;;;;;;6342847;22;20142;-63
2023/01/24 08:31:40;;;;;;;13.63;8.10;;;;;;;;;;6341627;22;20158;-63
2023/01/24 08:34:06;;;;;;;11.63;8.15;;;;;;;;;;6341956;22;20491;-62
2023/01/24 08:36:32;;;;;;;12.82;8.32;;;;;;;;;;6342360;22;20469;-62
2023/01/24 08:38:58;;;;;;;14.93;11.00;;;;;;;;;;6341141;22;20356;-63
2023/01/24 08:41:24;;;;;;;16.48;10.20;;;;;;;;;;6342399;22;20204;-64
2023/01/24 08:43:52;;;;;;;14.07;9.45;;;;;;;;;;6341625;22;20299;-63
2023/01/24 08:46:18;;;;;;;13.48;9.25;;;;;;;;;;6342328;22;20147;-64
2023/01/24 08:48:44;;;;;;;13.43;9.20;;;;;;;;;;6342313;22;20472;-63
2023/01/24 08:51:10;;;;;;;12.93;9.15;;;;;;;;;;6342375;22;20143;-63
2023/01/24 08:53:36;;;;;;;13.60;8.50;;;;;;;;;;6343412;22;20224;-62
2023/01/24 08:56:02;;;;;;;13.52;8.60;;;;;;;;;;6347444;22;20205;-62
2023/01/24 08:58:28;;;;;;;13.68;8.63;;;;;;;;;;6346420;22;20170;-62
2023/01/24 09:00:54;;;;;;;12.93;9.05;;;;;;;;;;6343523;22;20146;-62
2023/01/24 09:03:20;;;;;;;15.02;9.90;;;;;;;;;;6343524;22;20166;-62
2023/01/24 09:05:46;;;;;;;14.85;8.88;;;;;;;;;;6344149;22;20560;-62
2023/01/24 09:08:12;;;;;;;16.23;9.25;;;;;;;;;;6343605;22;20195;-63
2023/01/24 09:10:38;;;;;;;13.90;9.45;;;;;;;;;;6342081;22;20146;-62
2023/01/24 09:13:04;;;;;;;14.82;9.05;;;;;;;;;;6341890;22;20143;-61
2023/01/24 09:15:31;;;;;;;16.35;9.98;;;;;;;;;;6341638;22;20191;-63
2023/01/24 09:18:01;;;;;;;14.50;9.95;;;;;;;;;;6341635;22;20643;-63
2023/01/24 09:20:26;;;;;;;15.50;9.80;;;;;;;;;;6342300;22;20143;-63
2023/01/24 09:22:52;;;;;;;15.25;9.80;;;;;;;;;;6341572;22;20483;-63
2023/01/24 09:25:18;;;;;;;14.82;10.55;;;;;;;;;;6341806;22;20146;-63
2023/01/24 09:27:45;;;;;;;13.73;8.93;;;;;;;;;;6342049;22;20152;-62
2023/01/24 09:30:11;;;;;;;14.25;9.52;;;;;;;;;;6341817;22;20225;-62
2023/01/24 09:32:37;;;;;;;14.95;9.35;;;;;;;;;;6342008;22;20146;-62
2023/01/24 09:35:04;;;;;;;14.07;9.38;;;;;;;;;;6341859;22;20146;-62
2023/01/24 09:37:29;;;;;;;15.55;9.88;;;;;;;;;;6341539;22;20150;-63
2023/01/24 09:39:57;;;;;;;16.75;10.45;;;;;;;;;;6341758;22;20152;-63
2023/01/24 09:42:46;;;;;;;14.18;9.35;;;;;;;;;;6341479;22;20608;-63
2023/01/24 09:45:22;;;;;;;14.25;8.90;;;;;;;;;;6341083;22;20563;-63
2023/01/24 09:47:53;;;;;;;17.23;11.43;;;;;;;;;;6340747;22;20443;-62
2023/01/24 09:50:30;;;;;;;15.45;10.55;;;;;;;;;;6341654;22;20138;-62
2023/01/24 09:52:57;;;;;;;13.93;9.50;;;;;;;;;;6341190;22;20134;-62
2023/01/24 09:55:25;;;;;;;15.15;10.02;;;;;;;;;;6341391;22;20178;-63
2023/01/24 09:57:52;;;;;;;16.52;10.35;;;;;;;;;;6341889;22;20146;-63
2023/01/24 10:00:23;;;;;;;14.60;9.63;;;;;;;;;;6341830;22;20142;-63
2023/01/24 10:02:50;;;;;;;15.95;10.20;;;;;;;;;;6341396;22;20170;-63
2023/01/24 10:05:17;;;;;;;14.95;9.73;;;;;;;;;;6341848;22;20149;-62
2023/01/24 10:07:55;;;;;;;15.23;9.93;;;;;;;;;;6341555;22;20445;-62
2023/01/24 10:10:29;;;;;;;13.32;8.77;;;;;;;;;;6341395;22;20145;-62
2023/01/24 10:13:10;;;;;;;14.30;9.07;;;;;;;;;;6341110;22;20140;-62
2023/01/24 10:15:46;;;;;;;15.82;9.27;;;;;;;;;;6341605;22;20157;-62
2023/01/24 10:18:31;;;;;;;14.88;8.85;;;;;;;;;;6341273;22;20183;-62
2023/01/24 10:21:08;;;;;;;14.68;8.88;;;;;;;;;;6341188;22;20210;-63
2023/01/24 10:23:35;;;;;;;14.25;8.95;;;;;;;;;;6340988;22;20174;-63
2023/01/24 10:26:04;;;;;;;13.38;8.90;;;;;;;;;;6341198;22;20229;-63
2023/01/24 10:28:35;;;;;;;13.65;8.98;;;;;;;;;;6341408;22;20440;-62
2023/01/24 10:31:04;;;;;;;14.60;9.32;;;;;;;;;;6340959;22;20134;-63
2023/01/24 10:33:32;;;;;;;14.68;9.43;;;;;;;;;;6341338;22;20421;-63
2023/01/24 10:36:13;;;;;;;13.30;8.90;;;;;;;;;;6341341;22;20138;-63
2023/01/24 10:38:39;;;;;;;13.70;8.93;;;;;;;;;;6340993;22;20138;-63
2023/01/24 10:41:20;;;;;;;13.40;8.95;;;;;;;;;;6341470;22;20205;-62
2023/01/24 10:43:48;;;;;;;14.63;9.13;;;;;;;;;;6341355;22;20177;-61
2023/01/24 10:46:21;;;;;;;15.93;9.88;;;;;;;;;;6341729;22;20199;-62
2023/01/24 10:48:49;;;;;;;15.25;10.35;;;;;;;;;;6341424;22;20224;-62
2023/01/24 10:51:19;;;;;;;15.75;10.30;;;;;;;;;;6341236;22;20422;-62
2023/01/24 10:53:45;;;;;;;14.40;9.15;;;;;;;;;;6341445;22;20234;-63
2023/01/24 10:56:12;;;;;;;15.60;9.40;;;;;;;;;;6341425;22;20153;-62
2023/01/24 10:58:57;;;;;;;15.18;9.68;;;;;;;;;;6341157;22;20207;-62
2023/01/24 11:01:24;;;;;;;15.45;10.13;;;;;;;;;;6339764;22;20250;-62
2023/01/24 11:03:50;;;;;;;14.55;9.15;;;;;;;;;;6339100;22;20170;-63
2023/01/24 11:06:37;;;;;;;15.40;9.75;;;;;;;;;;6338824;22;20173;-63
2023/01/24 11:09:23;;;;;;;13.68;9.35;;;;;;;;;;6338598;22;20406;-63
2023/01/24 11:11:51;;;;;;;14.35;9.43;;;;;;;;;;6338585;22;20181;-63
2023/01/24 11:14:20;;;;;;;17.92;9.90;;;;;;;;;;6338909;22;20150;-63
2023/01/24 11:16:47;;;;;;;15.05;9.65;;;;;;;;;;6339262;22;20142;-62
2023/01/24 11:19:25;;;;;;;14.27;8.70;;;;;;;;;;6340477;22;20486;-63
2023/01/24 11:21:55;;;;;;;13.65;8.68;;;;;;;;;;6342888;22;20177;-63
2023/01/24 11:24:22;;;;;;;13.93;9.63;;;;;;;;;;6343395;22;20237;-63
2023/01/24 11:26:54;;;;;;;14.32;9.52;;;;;;;;;;6343034;22;20279;-63
2023/01/24 11:29:20;;;;;;;13.68;8.75;;;;;;;;;;6342838;22;20565;-63
2023/01/24 11:31:51;;;;;;;14.00;9.02;;;;;;;;;;6343667;22;20138;-61
2023/01/24 11:34:24;;;;;;;14.18;9.20;;;;;;;;;;6344889;22;20561;-62
2023/01/24 11:37:06;;;;;;;14.43;8.95;;;;;;;;;;6342552;22;20150;-62
2023/01/24 11:39:50;;;;;;;13.90;9.10;;;;;;;;;;6343015;22;20146;-61
2023/01/24 11:42:19;;;;;;;15.30;10.60;;;;;;;;;;6342655;22;20149;-62
2023/01/24 11:45:00;;;;;;;15.57;10.05;;;;;;;;;;6342632;22;20176;-63
2023/01/24 11:47:31;;;;;;;16.80;9.95;;;;;;;;;;6342532;22;20482;-63
2023/01/24 11:50:03;;;;;;;14.02;9.10;;;;;;;;;;6342946;22;20130;-62
2023/01/24 11:52:29;;;;;;;16.00;11.03;;;;;;;;;;6342591;22;20352;-64
2023/01/24 11:54:55;;;;;;;14.68;10.23;;;;;;;;;;6342504;22;20580;-61
2023/01/24 11:57:40;;;;;;;14.18;9.20;;;;;;;;;;6342890;22;20200;-61
2023/01/24 12:00:06;;;;;;;14.15;9.57;;;;;;;;;;6342423;22;20207;-63
2023/01/24 12:02:32;;;;;;;13.30;9.40;;;;;;;;;;6342280;22;20177;-63
2023/01/24 12:05:19;;;;;;;16.92;9.75;;;;;;;;;;6342310;22;20190;-64
2023/01/24 12:07:59;;;;;;;18.70;9.90;;;;;;;;;;6321230;22;20142;-63
2023/01/24 12:10:31;;;;;;;13.60;9.40;;;;;;;;;;6342735;22;20138;-62
2023/01/24 12:13:29;;;;;;;16.23;9.77;;;;;;;;;;6342484;22;20418;-63
2023/01/24 12:16:04;;;;;;;14.70;9.48;;;;;;;;;;6217299;23;20227;-63
2023/01/24 12:18:46;;;;;;;13.70;9.32;;;;;;;;;;6217297;23;20156;-62
2023/01/24 12:21:13;;;;;;;15.00;9.90;;;;;;;;;;6217055;23;20568;-61
2023/01/24 12:23:45;;;;;;;15.00;9.13;;;;;;;;;;6218679;23;20209;-62
2023/01/24 12:26:28;;;;;;;15.45;9.95;;;;;;;;;;6219287;23;20428;-63
2023/01/24 12:29:01;;;;;;;14.85;9.63;;;;;;;;;;6218269;23;20149;-63
2023/01/24 12:31:32;;;;;;;13.48;9.55;;;;;;;;;;6217689;23;20213;-63
2023/01/24 12:34:01;;;;;;;14.13;8.70;;;;;;;;;;6218445;23;20413;-63
2023/01/24 12:36:33;;;;;;;15.07;9.07;;;;;;;;;;6217845;23;20469;-62
2023/01/24 12:39:02;;;;;;;15.23;9.15;;;;;;;;;;6217223;23;20155;-62
2023/01/24 12:41:28;;;;;;;14.80;9.35;;;;;;;;;;6216755;23;20155;-62
2023/01/24 12:44:11;;;;;;;15.02;9.73;;;;;;;;;;6216793;23;20172;-62
2023/01/24 12:46:56;;;;;;;15.32;9.57;;;;;;;;;;6217314;23;20220;-62
2023/01/24 12:49:31;;;;;;;15.65;9.57;;;;;;;;;;6217303;23;20180;-60
2023/01/24 12:52:06;;;;;;;12.43;8.90;;;;;;;;;;6304530;22;20142;-61
2023/01/24 12:54:45;;;;;;;12.93;8.60;;;;;;;;;;6342461;22;20130;-63
2023/01/24 12:57:34;;;;;;;14.38;9.25;;;;;;;;;;6342165;22;20494;-62
2023/01/24 13:00:00;;;;;;;13.65;8.50;;;;;;;;;;6325795;22;20211;-62
2023/01/24 13:02:43;;;;;;;13.15;8.77;;;;;;;;;;6341952;22;20173;-60
2023/01/24 13:05:24;;;;;;;14.23;9.43;;;;;;;;;;6342104;22;20134;-64
2023/01/24 13:08:00;;;;;;;13.50;8.77;;;;;;;;;;6341931;22;20150;-63
2023/01/24 13:10:35;;;;;;;13.95;8.70;;;;;;;;;;6342022;22;20141;-63
2023/01/24 13:13:02;;;;;;;13.50;8.50;;;;;;;;;;6341630;22;20533;-59
2023/01/24 13:15:51;;;;;;;12.82;8.68;;;;;;;;;;6341877;22;20200;-61
2023/01/24 13:18:36;;;;;;;13.80;9.30;;;;;;;;;;6342257;22;20145;-60
2023/01/24 13:21:07;;;;;;;15.85;9.90;;;;;;;;;;6342353;22;20255;-62
2023/01/24 13:23:52;;;;;;;11.85;7.50;;;;;;;;;;6341380;22;20178;-62
2023/01/24 13:26:27;;;;;;;14.02;8.57;;;;;;;;;;6342006;22;20123;-61
2023/01/24 13:29:11;;;;;;;12.93;8.88;;;;;;;;;;6341538;22;20138;-60
2023/01/24 13:31:43;;;;;;;13.70;8.82;;;;;;;;;;6342080;22;20146;-60
2023/01/24 13:34:21;;;;;;;14.77;8.95;;;;;;;;;;6341592;22;20150;-61
2023/01/24 13:36:51;;;;;;;14.63;9.02;;;;;;;;;;6341826;22;20160;-62
2023/01/24 13:39:35;;;;;;;14.63;9.55;;;;;;;;;;6341644;22;20210;-61
2023/01/24 13:42:21;;;;;;;14.65;8.65;;;;;;;;;;6341891;22;20287;-62
2023/01/24 13:44:47;;;;;;;13.35;8.80;;;;;;;;;;6341384;22;20135;-62
2023/01/24 13:47:16;;;;;;;15.25;8.88;;;;;;;;;;6341669;22;20141;-61
2023/01/24 13:49:46;;;;;;;13.98;8.77;;;;;;;;;;6341466;22;20493;-62
2023/01/24 13:52:35;;;;;;;16.10;9.32;;;;;;;;;;6341560;22;20152;-61
2023/01/24 13:55:01;;;;;;;12.98;8.32;;;;;;;;;;6341289;22;20575;-61
2023/01/24 13:57:36;;;;;;;16.40;9.90;;;;;;;;;;6341497;22;20225;-61
2023/01/24 14:00:08;;;;;;;15.32;9.23;;;;;;;;;;6341794;22;20150;-60
2023/01/24 14:02:36;;;;;;;14.18;9.25;;;;;;;;;;6342402;22;20493;-60
2023/01/24 14:05:02;;;;;;;14.52;8.63;;;;;;;;;;6341568;22;20143;-61
2023/01/24 14:07:30;;;;;;;14.55;9.18;;;;;;;;;;6341561;22;20469;-62
2023/01/24 14:10:00;;;;;;;15.55;8.80;;;;;;;;;;6341978;22;20146;-61
2023/01/24 14:12:27;;;;;;;13.77;8.90;;;;;;;;;;6341440;22;20138;-62
2023/01/24 14:15:01;;;;;;;13.48;8.15;;;;;;;;;;6341341;22;20138;-62
2023/01/24 14:17:43;;;;;;;13.73;8.20;;;;;;;;;;6341627;22;20233;-62
2023/01/24 14:20:21;;;;;;;13.55;8.48;;;;;;;;;;6341839;22;20149;-63
2023/01/24 14:22:49;;;;;;;13.70;8.77;;;;;;;;;;6341110;22;20178;-61
2023/01/24 14:25:18;;;;;;;13.57;8.93;;;;;;;;;;6341633;22;20414;-62
2023/01/24 14:27:49;;;;;;;13.68;8.95;;;;;;;;;;6341481;22;20146;-61
2023/01/24 14:30:18;;;;;;;14.65;9.02;;;;;;;;;;6341640;22;20149;-62
2023/01/24 14:32:44;;;;;;;14.15;8.35;;;;;;;;;;6341699;22;20169;-62
2023/01/24 14:35:19;;;;;;;14.45;9.18;;;;;;;;;;6341217;22;20195;-62
2023/01/24 14:37:46;;;;;;;14.10;8.70;;;;;;;;;;6341379;22;20150;-63
2023/01/24 14:40:12;;;;;;;14.25;8.65;;;;;;;;;;6341201;22;20300;-63
2023/01/24 14:42:38;;;;;;;14.50;8.63;;;;;;;;;;6341131;22;20158;-63
2023/01/24 14:45:05;;;;;;;12.98;8.77;;;;;;;;;;6342125;22;20198;-62
2023/01/24 14:47:31;;;;;;;15.23;9.00;;;;;;;;;;6341475;22;20203;-62
2023/01/24 14:49:58;;;;;;;13.15;8.85;;;;;;;;;;6341345;22;20160;-63
2023/01/24 14:52:25;;;;;;;14.77;10.18;;;;;;;;;;6341143;22;20146;-62
2023/01/24 14:55:01;;;;;;;14.85;9.40;;;;;;;;;;6340642;22;20146;-63
2023/01/24 14:57:31;;;;;;;12.15;8.27;;;;;;;;;;6341203;22;20161;-62
2023/01/24 15:00:05;;;;;;;13.07;8.07;;;;;;;;;;6341172;22;20146;-61
2023/01/24 15:02:31;;;;;;;13.80;8.55;;;;;;;;;;6340789;22;20180;-60
2023/01/24 15:04:57;;;;;;;13.90;8.63;;;;;;;;;;6341265;22;20138;-61
2023/01/24 15:07:23;;;;;;;14.23;9.15;;;;;;;;;;6341906;22;20142;-61
2023/01/24 15:09:49;;;;;;;17.38;9.35;;;;;;;;;;6341241;22;20494;-63
2023/01/24 15:12:24;;;;;;;15.52;9.35;;;;;;;;;;6341337;22;20138;-62
2023/01/24 15:14:51;;;;;;;14.57;8.75;;;;;;;;;;6341148;22;20609;-61
2023/01/24 15:17:25;;;;;;;14.38;9.10;;;;;;;;;;6341205;22;20222;-63
2023/01/24 15:19:53;;;;;;;16.33;9.23;;;;;;;;;;6340706;22;20138;-63
2023/01/24 15:22:23;;;;;;;13.98;9.02;;;;;;;;;;6340750;22;20172;-63